createdAt,value
2022-09-05T00:01:17.649Z,2.3
2022-09-05T00:06:02.273Z,2.8
2022-09-05T00:11:41.754Z,3.1
2022-09-05T00:16:12.821Z,2.2
2022-09-05T00:24:27.972Z,2.0
2022-09-05T00:26:28.561Z,1.8
2022-09-05T00:31:55.559Z,1.8
2022-09-05T00:36:29.420Z,2.3
2022-09-05T00:41:45.826Z,2.7
2022-09-05T00:46:52.248Z,2.1
2022-09-05T00:52:18.609Z,3.0
2022-09-05T00:57:04.956Z,2.5
2022-09-05T01:02:11.559Z,2.8
2022-09-05T01:07:17.863Z,1.7
2022-09-05T01:12:14.321Z,3.1
2022-09-05T01:17:20.707Z,2.9
2022-09-05T01:22:37.174Z,1.9
2022-09-05T01:29:13.419Z,2.8
2022-09-05T01:32:49.861Z,2.4
2022-09-05T01:37:56.235Z,3.4
2022-09-05T01:43:02.637Z,2.8
2022-09-05T01:48:29.171Z,2.9
2022-09-05T01:53:35.665Z,2.8
2022-09-05T01:58:22.574Z,3.0
2022-09-05T02:03:27.990Z,2.8
2022-09-05T02:08:35.331Z,2.7
2022-09-05T02:13:41.708Z,4.7
2022-09-05T02:19:12.298Z,3.8
2022-09-05T02:23:54.649Z,3.4
2022-09-05T02:29:01.181Z,3.9
2022-09-05T02:34:07.606Z,3.1
2022-09-05T02:45:00.884Z,4.9
2022-09-05T02:45:26.955Z,4.4
2022-09-05T02:51:53.606Z,3.9
2022-09-05T02:57:24.058Z,3.1
2022-09-05T03:00:20.584Z,3.9
2022-09-05T03:05:26.986Z,3.3
2022-09-05T03:10:53.235Z,3.2
2022-09-05T03:15:29.845Z,3.2
2022-09-05T03:21:30.353Z,3.6
2022-09-05T03:25:52.834Z,3.7
2022-09-05T03:30:59.240Z,3.7
2022-09-05T03:35:55.549Z,2.8
2022-09-05T03:41:11.956Z,3.9
2022-09-05T03:46:08.399Z,3.8
2022-09-05T03:57:12.367Z,4.0
2022-09-05T03:57:17.819Z,3.8
2022-09-05T04:06:36.139Z,4.2
2022-09-05T04:08:26.467Z,4.8
2022-09-05T04:11:50.362Z,5.2
2022-09-05T04:16:56.892Z,4.5
2022-09-05T04:22:03.241Z,4.2
2022-09-05T04:27:34.821Z,4.1
2022-09-05T04:32:18.794Z,5.2
2022-09-05T04:37:23.664Z,3.8
2022-09-05T04:42:20.020Z,5.4
2022-09-05T04:47:36.427Z,5.2
2022-09-05T04:55:03.046Z,4.8
2022-09-05T04:59:03.736Z,4.2
2022-09-05T05:06:10.259Z,5.3
2022-09-05T05:08:38.027Z,4.8
2022-09-05T05:18:03.358Z,6.8
2022-09-05T05:18:46.912Z,7.5
2022-09-05T05:23:21.383Z,5.3
2022-09-05T05:28:28.105Z,6.1
2022-09-05T05:33:34.315Z,4.2
2022-09-05T05:38:40.693Z,6.4
2022-09-05T05:43:47.082Z,6.5
2022-09-05T05:48:56.955Z,5.7
2022-09-05T05:53:59.938Z,5.8
2022-09-05T06:00:14.929Z,6.8
2022-09-05T06:06:16.982Z,6.9
2022-09-05T06:14:49.842Z,5.0
2022-09-05T06:15:13.189Z,4.7
2022-09-05T06:31:31.957Z,8.2
2022-09-05T06:36:15.017Z,6.7
2022-09-05T06:41:21.409Z,5.5
2022-09-05T06:47:21.941Z,6.1
2022-09-05T06:52:09.763Z,6.4
2022-09-05T06:57:21.644Z,8.7
2022-09-05T07:02:59.800Z,4.9
2022-09-05T07:07:35.418Z,6.1
2022-09-05T07:12:31.823Z,7.5
2022-09-05T07:18:12.278Z,9.1
2022-09-05T07:22:48.352Z,7.3
2022-09-05T07:28:29.866Z,7.4
2022-09-05T07:33:07.452Z,7.0
2022-09-05T07:38:03.822Z,7.3
2022-09-05T07:43:10.719Z,7.9
2022-09-05T07:48:34.184Z,6.1
2022-09-05T07:56:55.403Z,5.7
2022-09-05T07:58:39.596Z,6.2
2022-09-05T08:03:36.097Z,6.9
2022-09-05T08:09:21.461Z,5.6
2022-09-05T08:14:38.543Z,7.7
2022-09-05T08:19:05.293Z,4.0
2022-09-05T08:24:01.650Z,3.2
2022-09-05T08:29:19.710Z,4.0
2022-09-05T08:34:31.516Z,3.3
2022-09-05T08:39:32.540Z,3.7
2022-09-05T08:46:42.291Z,2.6
2022-09-05T08:52:39.694Z,2.8
2022-09-05T08:55:26.859Z,3.1
2022-09-05T09:00:33.273Z,2.3
2022-09-05T09:06:12.003Z,1.9
2022-09-05T09:10:45.946Z,2.4
2022-09-05T09:15:52.417Z,2.2
2022-09-05T09:21:18.737Z,2.4
2022-09-05T09:26:05.091Z,3.0
2022-09-05T09:31:01.473Z,2.2
2022-09-05T09:36:17.846Z,2.6
2022-09-05T09:48:36.917Z,1.8
2022-09-05T09:52:21.242Z,2.7
2022-09-05T09:57:42.542Z,2.1
2022-09-05T10:10:32.737Z,1.7
2022-09-05T10:10:45.728Z,2.4
2022-09-05T10:12:37.638Z,1.9
2022-09-05T10:19:08.175Z,1.5
2022-09-05T10:23:14.449Z,1.8
2022-09-05T10:28:16.812Z,1.8
2022-09-05T10:35:08.291Z,1.8
2022-09-05T10:38:43.739Z,1.7
2022-09-05T10:43:51.156Z,1.1
2022-09-05T10:48:57.507Z,1.6
2022-09-05T10:54:03.886Z,1.2
2022-09-05T11:01:33.395Z,1.5
2022-09-05T11:04:16.822Z,1.3
2022-09-05T11:09:23.140Z,1.2
2022-09-05T11:15:47.787Z,2.4
2022-09-05T11:19:25.893Z,1.0
2022-09-05T11:24:42.413Z,1.2
2022-09-05T11:29:48.812Z,1.1
2022-09-05T11:40:02.008Z,1.1
2022-09-05T11:41:11.645Z,1.1
2022-09-05T11:45:07.995Z,1.0
2022-09-05T11:50:09.137Z,1.4
2022-09-05T11:55:21.729Z,1.3
2022-09-05T12:00:33.453Z,1.0
2022-09-05T12:05:49.921Z,1.1
2022-09-05T12:11:04.119Z,1.1
2022-09-05T12:16:07.893Z,0.8
2022-09-05T12:20:43.668Z,1.4
2022-09-05T12:27:42.468Z,1.0
2022-09-05T12:32:36.584Z,1.5
2022-09-05T12:40:40.226Z,1.2
2022-09-05T12:41:43.994Z,0.9
2022-09-05T12:46:24.891Z,1.1
2022-09-05T12:51:46.725Z,1.2
2022-09-05T13:02:02.812Z,1.2
2022-09-05T13:03:12.049Z,1.1
2022-09-05T13:06:50.533Z,1.5
2022-09-05T13:14:53.765Z,1.2
2022-09-05T13:16:53.242Z,1.2
2022-09-05T13:22:09.630Z,1.1
2022-09-05T13:27:16.013Z,0.9
2022-09-05T13:37:58.801Z,1.1
2022-09-05T13:38:19.615Z,1.8
2022-09-05T13:42:25.406Z,1.4
2022-09-05T13:48:01.852Z,1.3
2022-09-05T13:52:48.195Z,1.0
2022-09-05T13:58:14.603Z,1.1
2022-09-05T14:08:09.864Z,1.5
2022-09-05T14:13:37.287Z,1.1
2022-09-05T14:18:23.726Z,1.3
2022-09-05T14:23:30.002Z,1.2
2022-09-05T14:28:36.365Z,1.4
2022-09-05T14:37:44.744Z,1.1
2022-09-05T14:38:49.283Z,1.4
2022-09-05T14:43:46.096Z,1.1
2022-09-05T14:49:01.006Z,1.4
2022-09-05T14:54:08.699Z,2.3
2022-09-05T15:02:53.351Z,1.8
2022-09-05T15:12:15.620Z,1.0
2022-09-05T15:15:59.078Z,1.0
2022-09-05T15:19:40.524Z,0.9
2022-09-05T15:24:36.894Z,1.3
2022-09-05T15:29:53.409Z,0.9
2022-09-05T15:35:23.875Z,1.1
2022-09-05T15:40:07.665Z,1.2
2022-09-05T15:45:32.699Z,1.1
2022-09-05T15:50:22.434Z,0.7
2022-09-05T15:55:25.326Z,0.9
2022-09-05T16:00:31.702Z,1.0
2022-09-05T16:10:31.287Z,1.6
2022-09-05T16:11:07.009Z,1.4
2022-09-05T16:22:26.635Z,1.3
2022-09-05T16:23:32.900Z,0.9
2022-09-05T16:26:03.849Z,1.8
2022-09-05T16:31:10.253Z,0.8
2022-09-05T16:36:16.651Z,1.7
2022-09-05T16:41:24.572Z,1.2
2022-09-05T16:46:29.391Z,1.3
2022-09-05T16:51:36.339Z,1.8
2022-09-05T16:57:02.321Z,2.6
2022-09-05T17:01:48.998Z,1.2
2022-09-05T17:07:09.193Z,1.6
2022-09-05T17:12:25.625Z,1.1
2022-09-05T17:18:19.519Z,2.0
2022-09-05T17:24:37.119Z,1.9
2022-09-05T17:29:26.024Z,3.7
2022-09-05T17:32:27.127Z,2.0
2022-09-05T17:37:33.506Z,3.6
2022-09-05T17:42:39.880Z,7.6
2022-09-05T17:48:06.294Z,3.6
2022-09-05T17:52:42.631Z,3.2
2022-09-05T17:57:58.029Z,2.4
2022-09-05T18:04:16.020Z,4.4
2022-09-05T18:08:13.357Z,8.3
2022-09-05T18:13:32.278Z,5.8
2022-09-05T18:18:24.291Z,3.9
2022-09-05T18:23:39.685Z,5.0
2022-09-05T18:28:59.241Z,6.3
2022-09-05T18:33:55.376Z,3.6
2022-09-05T18:39:05.801Z,4.6
2022-09-05T18:44:12.336Z,4.0
2022-09-05T18:50:22.188Z,1.5
2022-09-05T18:54:16.346Z,1.6
2022-09-05T18:59:17.322Z,1.3
2022-09-05T19:04:40.876Z,1.9
2022-09-05T19:09:50.094Z,1.8
2022-09-05T19:14:36.433Z,1.7
2022-09-05T19:19:42.822Z,1.7
2022-09-05T19:24:49.198Z,1.3
2022-09-05T19:36:59.598Z,1.8
2022-09-05T19:37:04.963Z,1.3
2022-09-05T19:47:26.472Z,1.7
2022-09-05T19:47:50.724Z,2.5
2022-09-05T19:50:21.096Z,1.6
2022-09-05T19:55:27.477Z,2.1
2022-09-05T20:00:34.024Z,2.3
2022-09-05T20:05:40.352Z,2.4
2022-09-05T20:10:36.710Z,2.2
2022-09-05T20:15:53.193Z,2.1
2022-09-05T20:20:59.501Z,2.7
2022-09-05T20:25:55.976Z,2.1
2022-09-05T20:31:32.657Z,2.8
2022-09-05T20:43:12.569Z,2.4
2022-09-05T20:43:26.645Z,2.2
2022-09-05T20:50:08.275Z,2.2
2022-09-05T20:54:17.182Z,1.5
2022-09-05T21:01:52.681Z,2.6
2022-09-05T21:03:46.742Z,3.4
2022-09-05T21:07:18.936Z,1.9
2022-09-05T21:13:08.461Z,2.3
2022-09-05T21:17:16.043Z,2.6
2022-09-05T21:22:45.195Z,2.5
2022-09-05T21:32:41.169Z,4.3
2022-09-05T21:37:40.364Z,2.6
2022-09-05T21:47:20.341Z,2.6
2022-09-05T21:54:42.620Z,2.6
2022-09-05T21:59:20.006Z,3.1
2022-09-05T21:59:20.587Z,3.4
2022-09-05T22:03:18.797Z,2.7
2022-09-05T22:13:28.813Z,2.5
2022-09-05T22:19:03.275Z,2.4
2022-09-05T22:28:47.995Z,2.0
2022-09-05T22:33:54.395Z,2.6
2022-09-05T22:40:01.023Z,3.0
2022-09-05T22:46:55.521Z,2.7
2022-09-05T22:50:37.733Z,2.7
2022-09-05T22:54:39.990Z,2.9
2022-09-05T22:59:46.385Z,2.1
2022-09-05T23:04:32.807Z,1.8
2022-09-05T23:12:47.484Z,3.6
2022-09-05T23:15:45.702Z,1.9
2022-09-05T23:20:15.931Z,2.7
2022-09-05T23:25:01.424Z,2.6
2022-09-05T23:30:07.792Z,2.0
2022-09-05T23:35:14.191Z,2.5
2022-09-05T23:40:24.556Z,2.2
2022-09-05T23:45:26.927Z,2.2
2022-09-05T23:50:33.297Z,2.1
2022-09-05T23:55:59.738Z,2.9
